Time;durP1;ratioP1;P1;durP2;ratioP2;P2;SDS_P1;SDS_P2;PMS_P1;PMS_P2;Temp;Humidity;BMP_temperature;BMP_pressure;BME280_temperature;BME280_humidity;BME280_pressure;Samples;Min_cycle;Max_cycle;Signal;HPM_P1;HPM_P2
2022/05/29 00:01:51;;;;;;;6.28;2.08;;;21.30;55.20;;;;;;5038496;28;20052;-55
2022/05/29 00:04:18;;;;;;;7.97;2.00;;;21.30;55.20;;;;;;5041547;28;20040;-55
2022/05/29 00:06:44;;;;;;;6.97;2.30;;;21.30;55.20;;;;;;5041680;28;20072;-55
2022/05/29 00:09:11;;;;;;;9.88;2.25;;;21.20;55.20;;;;;;5042682;28;20107;-55
2022/05/29 00:11:37;;;;;;;6.85;1.90;;;21.30;55.30;;;;;;5035847;28;20028;-55
2022/05/29 00:14:03;;;;;;;6.50;1.73;;;21.20;55.30;;;;;;5038398;28;20029;-55
2022/05/29 00:16:28;;;;;;;7.75;1.83;;;21.20;55.30;;;;;;5031348;28;20047;-55
2022/05/29 00:18:54;;;;;;;6.00;1.77;;;21.20;55.30;;;;;;5039608;28;20024;-55
2022/05/29 00:21:20;;;;;;;6.63;2.08;;;21.20;55.40;;;;;;5038459;28;20383;-55
2022/05/29 00:23:49;;;;;;;6.53;1.65;;;21.20;55.40;;;;;;5036918;28;20017;-55
2022/05/29 00:26:18;;;;;;;5.63;2.00;;;21.20;55.40;;;;;;5032396;28;20390;-55
2022/05/29 00:28:44;;;;;;;8.88;1.98;;;21.20;55.40;;;;;;5038187;28;20087;-56
2022/05/29 00:31:10;;;;;;;8.35;1.90;;;21.20;55.40;;;;;;5038438;28;20068;-55
2022/05/29 00:33:36;;;;;;;6.65;1.90;;;21.20;55.40;;;;;;5034737;28;20029;-56
2022/05/29 00:36:01;;;;;;;5.15;1.80;;;21.20;55.50;;;;;;5038702;28;20032;-56
2022/05/29 00:38:27;;;;;;;6.78;1.90;;;21.10;55.40;;;;;;5038792;28;20056;-55
2022/05/29 00:41:23;;;;;;;6.47;1.90;;;21.10;55.40;;;;;;5036846;28;20086;-55
2022/05/29 00:44:15;;;;;;;10.18;1.92;;;21.10;55.50;;;;;;5036310;28;20033;-55
2022/05/29 00:46:45;;;;;;;5.85;1.73;;;21.10;55.50;;;;;;5036788;28;20029;-56
2022/05/29 00:49:10;;;;;;;7.30;1.80;;;21.10;55.50;;;;;;5035486;28;20041;-55
2022/05/29 00:51:39;;;;;;;8.57;2.00;;;21.10;55.50;;;;;;5032224;28;20051;-55
2022/05/29 00:54:05;;;;;;;6.05;1.70;;;21.10;55.60;;;;;;5035142;28;20029;-55
2022/05/29 00:56:31;;;;;;;5.13;1.70;;;21.00;55.50;;;;;;5064984;28;20222;-55
2022/05/29 00:58:58;;;;;;;4.80;1.60;;;21.10;55.70;;;;;;5064603;28;20026;-55
2022/05/29 01:01:23;;;;;;;5.88;1.75;;;21.00;55.70;;;;;;5048433;28;20075;-55
2022/05/29 01:03:49;;;;;;;4.22;1.67;;;21.00;55.60;;;;;;5044464;28;20802;-55
2022/05/29 01:06:14;;;;;;;5.32;1.90;;;21.00;55.70;;;;;;5036643;28;20160;-55
2022/05/29 01:08:40;;;;;;;5.10;1.67;;;21.10;55.70;;;;;;5032485;28;20049;-55
2022/05/29 01:11:13;;;;;;;5.88;1.88;;;21.00;55.70;;;;;;5037152;28;20112;-55
2022/05/29 01:13:54;;;;;;;6.25;1.70;;;21.00;55.70;;;;;;5044851;28;20049;-55
2022/05/29 01:16:31;;;;;;;3.85;1.70;;;21.00;55.70;;;;;;5041496;28;20052;-55
2022/05/29 01:19:18;;;;;;;5.88;1.77;;;21.00;55.70;;;;;;5034729;28;20494;-55
2022/05/29 01:21:53;;;;;;;6.78;1.90;;;21.00;55.80;;;;;;5039139;28;20033;-55
2022/05/29 01:24:27;;;;;;;;;;;21.00;55.80;;;;;;5036978;28;20076;-55
2022/05/29 01:27:11;;;;;;;4.57;1.50;;;20.90;55.80;;;;;;5071467;28;19918;-55
2022/05/29 01:30:01;;;;;;;5.00;1.85;;;21.00;55.80;;;;;;5042018;28;20045;-55
2022/05/29 01:32:50;;;;;;;6.65;1.70;;;20.90;55.80;;;;;;5066598;28;20045;-55
2022/05/29 01:35:45;;;;;;;6.10;1.67;;;21.00;55.80;;;;;;5042994;28;20090;-55
2022/05/29 01:38:35;;;;;;;5.20;2.10;;;20.90;55.90;;;;;;5017291;28;20418;-55
2022/05/29 01:41:23;;;;;;;5.40;1.63;;;20.90;55.90;;;;;;5003648;28;20026;-55
2022/05/29 01:44:14;;;;;;;5.43;1.70;;;20.90;55.90;;;;;;5017814;28;20045;-55
2022/05/29 01:46:41;;;;;;;5.45;1.63;;;20.90;55.90;;;;;;5006216;28;20479;-56
2022/05/29 01:49:37;;;;;;;4.78;1.70;;;20.90;56.00;;;;;;5005770;28;20053;-55
2022/05/29 01:52:07;;;;;;;5.63;1.73;;;20.90;56.00;;;;;;5000619;28;20030;-55
2022/05/29 01:54:57;;;;;;;4.50;1.52;;;20.90;56.00;;;;;;5003671;28;20450;-56
2022/05/29 01:57:34;;;;;;;3.70;1.60;;;20.90;56.00;;;;;;4990393;28;20530;-55
2022/05/29 02:00:07;;;;;;;6.03;1.70;;;20.90;56.10;;;;;;5001347;28;20547;-56
2022/05/29 02:02:38;;;;;;;4.15;1.58;;;20.80;56.00;;;;;;5007428;28;20034;-56
2022/05/29 02:05:10;;;;;;;4.63;1.65;;;20.80;56.00;;;;;;5020605;28;20037;-55
2022/05/29 02:07:48;;;;;;;9.18;1.88;;;20.80;56.10;;;;;;4995281;28;20024;-55
2022/05/29 02:10:26;;;;;;;6.32;1.63;;;20.80;56.10;;;;;;5019938;28;20486;-55
2022/05/29 02:13:00;;;;;;;4.78;1.52;;;20.80;56.10;;;;;;5023055;28;20410;-55
2022/05/29 02:16:01;;;;;;;4.90;1.58;;;20.80;56.10;;;;;;5031537;28;20045;-55
2022/05/29 02:18:33;;;;;;;4.35;1.70;;;20.80;56.20;;;;;;5017910;28;20065;-55
2022/05/29 02:21:02;;;;;;;4.85;1.48;;;20.80;56.20;;;;;;5039224;28;20078;-55
2022/05/29 02:23:34;;;;;;;6.47;1.73;;;20.80;56.20;;;;;;5008130;28;20033;-55
2022/05/29 02:26:00;;;;;;;4.25;1.58;;;20.80;56.20;;;;;;5000460;28;20175;-55
2022/05/29 02:28:37;;;;;;;4.30;1.63;;;20.70;56.20;;;;;;5007953;28;20060;-55
2022/05/29 02:31:11;;;;;;;5.13;1.42;;;20.70;56.20;;;;;;5024386;28;20025;-55
2022/05/29 02:33:41;;;;;;;4.10;1.60;;;20.70;56.20;;;;;;5038380;28;20124;-55
2022/05/29 02:36:23;;;;;;;5.55;1.52;;;20.70;56.30;;;;;;5021608;28;20069;-55
2022/05/29 02:39:08;;;;;;;4.85;1.52;;;20.70;56.20;;;;;;5040300;28;20032;-55
2022/05/29 02:42:03;;;;;;;5.27;1.83;;;20.70;56.30;;;;;;5040196;28;20052;-55
2022/05/29 02:44:34;;;;;;;6.00;1.60;;;20.70;56.30;;;;;;5020535;28;20506;-55
2022/05/29 02:47:11;;;;;;;5.10;1.52;;;20.70;56.30;;;;;;5036268;28;20445;-55
2022/05/29 02:49:42;;;;;;;7.20;1.60;;;20.70;56.40;;;;;;5033800;28;20025;-55
2022/05/29 02:52:13;;;;;;;4.18;1.60;;;20.60;56.30;;;;;;5003621;28;20665;-55
2022/05/29 02:54:39;;;;;;;6.60;1.50;;;20.70;56.40;;;;;;5035253;28;20034;-55
2022/05/29 02:57:04;;;;;;;3.72;1.60;;;20.60;57.40;;;;;;5031636;28;20071;-55
2022/05/29 02:59:52;;;;;;;4.07;1.50;;;20.60;56.40;;;;;;5032310;28;20458;-55
2022/05/29 03:02:32;;;;;;;3.58;1.55;;;20.60;56.40;;;;;;5039334;28;20080;-55
2022/05/29 03:05:01;;;;;;;4.55;1.50;;;20.60;56.40;;;;;;5033244;28;20429;-55
2022/05/29 03:07:39;;;;;;;3.88;1.45;;;20.60;56.40;;;;;;5031309;28;20048;-57
2022/05/29 03:10:11;;;;;;;4.93;1.52;;;20.70;56.50;;;;;;5038476;28;20374;-55
2022/05/29 03:12:49;;;;;;;6.35;1.80;;;20.60;56.40;;;;;;5034986;28;20116;-55
2022/05/29 03:15:32;;;;;;;6.97;1.73;;;20.60;56.40;;;;;;5035545;28;20041;-55
2022/05/29 03:18:10;;;;;;;4.30;1.33;;;20.60;56.40;;;;;;5032528;28;20104;-55
2022/05/29 03:20:56;;;;;;;5.13;1.65;;;20.60;56.50;;;;;;5031808;28;20448;-55
2022/05/29 03:23:58;;;;;;;5.68;1.70;;;20.60;56.40;;;;;;5038241;28;20037;-55
2022/05/29 03:26:32;;;;;;;3.95;1.58;;;20.60;56.50;;;;;;5035968;28;20013;-55
2022/05/29 03:29:11;;;;;;;3.95;1.70;;;20.60;56.50;;;;;;5036055;28;20393;-55
2022/05/29 03:31:36;;;;;;;4.65;1.77;;;20.50;56.50;;;;;;5029855;28;20018;-55
2022/05/29 03:34:02;;;;;;;4.95;1.60;;;20.60;56.60;;;;;;5037536;28;20026;-55
2022/05/29 03:36:29;;;;;;;3.85;1.40;;;20.50;56.50;;;;;;5068093;28;20029;-55
2022/05/29 03:38:55;;;;;;;5.07;1.70;;;20.50;56.50;;;;;;5042562;28;20029;-55
2022/05/29 03:41:27;;;;;;;5.03;1.70;;;20.50;56.60;;;;;;5044873;28;20029;-55
2022/05/29 03:43:53;;;;;;;4.07;1.85;;;20.50;56.60;;;;;;5034263;28;20060;-55
2022/05/29 03:46:18;;;;;;;6.10;1.83;;;20.50;56.60;;;;;;5040483;28;20061;-55
2022/05/29 03:48:44;;;;;;;4.40;1.55;;;20.50;56.60;;;;;;5042146;28;20071;-55
2022/05/29 03:51:10;;;;;;;3.80;1.65;;;20.50;56.60;;;;;;5039206;28;20069;-55
2022/05/29 03:53:35;;;;;;;3.92;1.40;;;20.50;56.60;;;;;;5036936;28;20034;-55
2022/05/29 03:56:01;;;;;;;3.60;1.45;;;20.50;56.60;;;;;;5039469;28;20021;-55
2022/05/29 03:58:27;;;;;;;5.68;1.60;;;20.50;56.70;;;;;;5041247;28;20100;-55
2022/05/29 04:00:52;;;;;;;5.57;1.60;;;20.50;56.70;;;;;;5033772;28;20493;-55
2022/05/29 04:03:19;;;;;;;4.38;1.50;;;20.40;56.60;;;;;;5038800;28;20038;-55
2022/05/29 04:05:45;;;;;;;4.13;1.58;;;20.50;56.70;;;;;;5036244;28;20532;-55
2022/05/29 04:13:40;;;;;;;3.10;1.50;;;20.40;56.70;;;;;;5033913;28;20091;-55
2022/05/29 04:16:06;;;;;;;4.22;1.52;;;20.40;56.80;;;;;;5042678;28;20116;-55
2022/05/29 04:18:32;;;;;;;4.57;1.65;;;20.40;56.80;;;;;;5036258;28;20101;-55
2022/05/29 04:20:57;;;;;;;4.13;1.50;;;20.40;56.70;;;;;;5038328;28;20032;-55
2022/05/29 04:23:23;;;;;;;3.85;1.42;;;20.40;56.80;;;;;;5036031;28;20109;-55
2022/05/29 04:25:49;;;;;;;4.55;1.60;;;20.40;56.80;;;;;;5032354;28;20028;-55
2022/05/29 04:28:15;;;;;;;3.95;1.55;;;20.40;56.80;;;;;;5040603;28;20084;-55
2022/05/29 04:30:40;;;;;;;4.00;1.48;;;20.40;56.80;;;;;;5031371;28;20029;-55
2022/05/29 04:33:06;;;;;;;4.32;1.45;;;20.40;56.80;;;;;;5034225;28;20047;-55
2022/05/29 04:35:39;;;;;;;4.30;1.50;;;20.40;56.80;;;;;;5034701;28;20501;-55
2022/05/29 04:38:05;;;;;;;4.60;1.75;;;20.30;56.80;;;;;;5036293;28;20037;-55
2022/05/29 04:40:31;;;;;;;4.75;1.52;;;20.40;56.80;;;;;;5040824;28;20036;-55
2022/05/29 04:42:56;;;;;;;3.17;1.50;;;20.30;56.80;;;;;;5033618;28;20025;-55
2022/05/29 04:45:22;;;;;;;4.18;1.60;;;20.30;56.80;;;;;;5032511;28;20052;-55
2022/05/29 04:47:48;;;;;;;4.28;1.45;;;20.40;56.90;;;;;;5040889;28;20041;-55
2022/05/29 04:50:14;;;;;;;5.75;1.85;;;20.30;56.60;;;;;;5034326;28;20115;-55
2022/05/29 04:52:39;;;;;;;3.40;1.50;;;20.30;56.90;;;;;;5034776;28;20068;-55
2022/05/29 04:55:05;;;;;;;4.80;1.60;;;20.30;56.90;;;;;;5034219;28;20032;-55
2022/05/29 04:57:31;;;;;;;4.30;1.50;;;20.30;56.90;;;;;;5035707;28;20060;-55
2022/05/29 04:59:57;;;;;;;3.88;1.40;;;20.30;56.90;;;;;;5040654;28;20025;-55
2022/05/29 05:02:24;;;;;;;4.68;1.52;;;20.30;56.90;;;;;;5040339;28;20063;-55
2022/05/29 05:04:50;;;;;;;5.32;1.60;;;20.30;56.90;;;;;;5038309;28;20505;-55
2022/05/29 05:07:15;;;;;;;5.03;1.60;;;20.30;57.00;;;;;;5033914;28;20029;-55
2022/05/29 05:09:41;;;;;;;3.83;1.50;;;20.30;57.00;;;;;;5035710;28;20075;-55
2022/05/29 05:12:07;;;;;;;3.33;1.60;;;20.30;56.90;;;;;;5035666;28;20029;-55
2022/05/29 05:14:33;;;;;;;4.10;1.45;;;20.30;57.00;;;;;;5035882;28;20478;-56
2022/05/29 05:16:59;;;;;;;4.28;1.70;;;20.20;56.90;;;;;;5034313;28;20032;-55
2022/05/29 05:19:24;;;;;;;3.47;1.60;;;20.20;57.00;;;;;;5042080;28;20139;-55
2022/05/29 05:21:50;;;;;;;3.47;1.35;;;20.20;57.00;;;;;;5038899;28;20565;-55
2022/05/29 05:24:16;;;;;;;5.43;1.45;;;20.20;57.10;;;;;;5035774;28;20100;-55
2022/05/29 05:26:41;;;;;;;3.63;1.40;;;20.20;57.10;;;;;;5034432;28;20025;-55
2022/05/29 05:29:07;;;;;;;4.05;1.70;;;20.20;57.10;;;;;;5041422;28;20036;-55
2022/05/29 05:31:33;;;;;;;3.70;1.45;;;20.20;57.10;;;;;;5038472;28;20029;-55
2022/05/29 05:33:59;;;;;;;3.40;1.30;;;20.20;57.00;;;;;;5037672;28;20537;-55
2022/05/29 05:36:25;;;;;;;2.53;1.33;;;20.20;57.10;;;;;;5040792;28;20079;-55
2022/05/29 05:38:53;;;;;;;3.85;1.50;;;20.20;57.10;;;;;;5034388;28;20030;-55
2022/05/29 05:41:19;;;;;;;3.78;1.50;;;20.20;57.10;;;;;;5039618;28;20120;-55
2022/05/29 05:43:45;;;;;;;4.20;1.38;;;20.20;57.10;;;;;;5037091;28;20108;-55
2022/05/29 05:46:12;;;;;;;3.72;1.40;;;20.20;57.20;;;;;;5031598;28;20457;-55
2022/05/29 05:48:39;;;;;;;4.55;1.52;;;20.20;57.10;;;;;;5041894;28;20575;-55
2022/05/29 05:51:05;;;;;;;3.88;1.55;;;20.20;57.20;;;;;;5031122;28;20195;-55
2022/05/29 05:53:31;;;;;;;2.35;1.40;;;20.20;57.20;;;;;;5037964;28;20040;-55
2022/05/29 05:55:56;;;;;;;5.53;1.77;;;20.20;57.30;;;;;;5032357;28;20457;-55
2022/05/29 05:58:22;;;;;;;3.78;1.52;;;20.20;57.20;;;;;;5034240;28;20030;-55
2022/05/29 06:00:48;;;;;;;3.17;1.60;;;20.20;57.40;;;;;;5031922;28;20075;-55
2022/05/29 06:03:14;;;;;;;5.00;1.50;;;20.20;57.40;;;;;;5038119;28;20079;-56
2022/05/29 06:05:40;;;;;;;4.10;1.42;;;20.20;57.20;;;;;;5033548;28;20418;-55
2022/05/29 06:08:06;;;;;;;4.47;1.40;;;20.20;57.30;;;;;;5033449;28;20024;-55
2022/05/29 06:10:32;;;;;;;3.25;1.48;;;20.20;57.40;;;;;;5036037;28;20036;-55
2022/05/29 06:13:02;;;;;;;4.65;1.40;;;20.20;57.40;;;;;;5036694;28;20039;-55
2022/05/29 06:15:28;;;;;;;3.50;1.40;;;20.20;57.30;;;;;;5035192;28;20071;-55
2022/05/29 06:17:54;;;;;;;3.53;1.30;;;20.20;57.40;;;;;;5034183;28;20405;-56
2022/05/29 06:20:20;;;;;;;4.00;1.48;;;20.20;57.30;;;;;;5029240;28;20053;-55
2022/05/29 06:22:45;;;;;;;3.97;1.60;;;20.10;57.20;;;;;;5032245;28;20033;-55
2022/05/29 06:25:11;;;;;;;3.55;1.45;;;20.10;57.30;;;;;;5031627;28;20034;-55
2022/05/29 06:27:41;;;;;;;3.88;1.33;;;20.10;57.20;;;;;;5034175;28;20021;-55
2022/05/29 06:30:08;;;;;;;4.43;1.40;;;20.10;57.20;;;;;;5037811;28;20024;-55
2022/05/29 06:32:37;;;;;;;2.97;1.23;;;20.20;57.40;;;;;;5031710;28;20115;-56
2022/05/29 06:35:04;;;;;;;4.22;1.40;;;20.10;57.40;;;;;;5033150;28;20532;-56
2022/05/29 06:37:31;;;;;;;2.45;1.33;;;20.10;57.30;;;;;;5030758;28;20059;-55
2022/05/29 06:39:57;;;;;;;4.00;1.40;;;20.10;57.30;;;;;;5037135;28;20053;-55
2022/05/29 06:42:22;;;;;;;5.07;1.38;;;20.10;57.40;;;;;;5037767;28;20056;-55
2022/05/29 06:44:48;;;;;;;3.70;1.40;;;20.10;57.30;;;;;;5040014;28;20029;-55
2022/05/29 06:47:15;;;;;;;3.78;1.55;;;20.10;57.30;;;;;;5032209;28;20058;-55
2022/05/29 06:49:41;;;;;;;3.17;1.42;;;20.10;57.30;;;;;;5033938;28;20489;-53
2022/05/29 06:52:07;;;;;;;4.43;1.55;;;20.20;57.50;;;;;;5038661;28;20116;-54
2022/05/29 06:54:34;;;;;;;8.90;2.30;;;20.20;57.00;;;;;;5033877;28;20052;-55
2022/05/29 06:56:59;;;;;;;12.90;2.45;;;20.10;56.80;;;;;;5041550;28;20029;-53
2022/05/29 06:59:25;;;;;;;13.00;2.67;;;20.10;56.60;;;;;;5035021;28;20021;-54
2022/05/29 07:07:24;;;;;;;15.30;3.07;;;20.00;56.50;;;;;;5040114;28;20036;-54
2022/05/29 07:09:49;;;;;;;12.88;2.63;;;20.00;56.40;;;;;;5027123;28;20112;-53
2022/05/29 07:12:24;;;;;;;13.90;3.28;;;20.00;56.50;;;;;;5026706;28;20148;-53
2022/05/29 07:14:58;;;;;;;17.70;3.30;;;20.00;56.50;;;;;;5042555;28;20036;-53
2022/05/29 07:17:23;;;;;;;11.23;2.50;;;20.00;56.20;;;;;;5042909;28;20435;-53
2022/05/29 07:19:50;;;;;;;14.82;2.80;;;20.00;56.10;;;;;;5026697;28;20133;-54
2022/05/29 07:22:15;;;;;;;12.90;2.42;;;20.00;55.90;;;;;;5025751;28;20045;-52
2022/05/29 07:24:41;;;;;;;12.93;3.05;;;20.00;56.00;;;;;;5026230;28;20398;-53
2022/05/29 07:27:07;;;;;;;11.80;2.53;;;20.00;55.30;;;;;;5026179;28;20414;-53
2022/05/29 07:29:33;;;;;;;13.88;2.75;;;20.00;55.50;;;;;;5025549;28;21221;-53
2022/05/29 07:31:58;;;;;;;10.60;2.53;;;19.90;56.40;;;;;;5026544;28;20060;-54
2022/05/29 07:34:24;;;;;;;11.00;2.20;;;20.00;54.80;;;;;;5025874;28;20064;-53
2022/05/29 07:36:52;;;;;;;9.93;2.10;;;20.00;54.80;;;;;;5023442;28;20116;-53
2022/05/29 07:39:18;;;;;;;10.13;2.20;;;20.00;54.60;;;;;;5026959;28;20025;-54
2022/05/29 07:44:28;;;;;;;9.98;2.47;;;20.00;54.10;;;;;;5042996;28;20144;-52
2022/05/29 07:46:54;;;;;;;12.85;2.20;;;20.00;53.80;;;;;;5036493;28;20111;-54
2022/05/29 07:49:21;;;;;;;13.30;2.67;;;20.00;53.40;;;;;;5034430;28;20102;-54
2022/05/29 07:51:47;;;;;;;9.23;2.42;;;20.00;53.70;;;;;;5041653;28;20090;-54
2022/05/29 07:54:13;;;;;;;10.35;2.00;;;19.90;53.40;;;;;;5043725;28;20501;-52
2022/05/29 07:56:38;;;;;;;13.93;2.60;;;19.90;53.00;;;;;;5038987;28;20031;-53
2022/05/29 07:59:04;;;;;;;12.00;2.85;;;20.00;53.00;;;;;;5036160;28;20029;-54
2022/05/29 08:01:30;;;;;;;9.85;2.30;;;20.00;53.40;;;;;;5036470;28;20564;-53
2022/05/29 08:03:55;;;;;;;6.72;2.20;;;20.00;53.30;;;;;;5037884;28;20037;-54
2022/05/29 08:06:21;;;;;;;10.77;2.50;;;20.00;53.40;;;;;;5041528;28;20130;-53
2022/05/29 08:08:47;;;;;;;9.20;2.38;;;20.00;53.20;;;;;;5044793;28;20112;-53
2022/05/29 08:11:15;;;;;;;10.68;2.67;;;20.00;53.20;;;;;;5033907;28;20037;-53
2022/05/29 08:13:40;;;;;;;8.98;2.10;;;20.00;53.00;;;;;;5041870;28;20120;-54
2022/05/29 08:16:06;;;;;;;8.85;2.25;;;20.00;53.30;;;;;;5039363;28;20375;-54
2022/05/29 08:18:32;;;;;;;12.30;2.28;;;20.00;52.90;;;;;;5036837;28;20498;-53
2022/05/29 08:20:57;;;;;;;9.60;2.33;;;20.00;53.10;;;;;;5041681;28;20024;-53
2022/05/29 08:23:23;;;;;;;9.77;1.92;;;20.00;53.30;;;;;;5040051;28;20024;-53
2022/05/29 08:31:20;;;;;;;10.90;2.42;;;20.10;53.30;;;;;;5037296;28;20275;-53
2022/05/29 08:33:47;;;;;;;9.27;2.80;;;20.10;52.90;;;;;;5040173;28;20029;-53
2022/05/29 08:36:18;;;;;;;9.85;2.22;;;20.00;52.80;;;;;;5038208;28;20124;-53
2022/05/29 08:38:45;;;;;;;8.15;2.40;;;20.00;52.80;;;;;;5042450;28;20029;-53
2022/05/29 08:41:30;;;;;;;9.23;2.10;;;20.10;52.80;;;;;;5041399;28;20528;-53
2022/05/29 08:44:06;;;;;;;7.82;2.25;;;20.10;53.00;;;;;;5043189;28;20024;-54
2022/05/29 08:46:38;;;;;;;6.53;2.30;;;20.10;54.00;;;;;;5036086;28;20025;-52
2022/05/29 08:49:04;;;;;;;8.40;2.10;;;20.10;52.70;;;;;;5038006;28;20057;-53
2022/05/29 08:52:04;;;;;;;8.02;2.45;;;20.10;52.60;;;;;;5042975;28;20033;-54
2022/05/29 08:54:46;;;;;;;10.75;2.50;;;20.10;52.60;;;;;;5038500;28;20430;-53
2022/05/29 08:57:41;;;;;;;8.18;2.10;;;20.20;52.50;;;;;;5072858;28;20112;-53
2022/05/29 09:00:18;;;;;;;8.00;2.20;;;20.20;52.60;;;;;;5035852;28;20060;-53
2022/05/29 09:03:09;;;;;;;9.80;2.28;;;20.20;52.10;;;;;;5026079;28;20041;-52
2022/05/29 09:05:52;;;;;;;7.35;2.10;;;20.10;51.50;;;;;;5037950;28;20036;-54
2022/05/29 09:08:40;;;;;;;7.03;2.45;;;20.20;52.30;;;;;;5031177;28;20111;-53
2022/05/29 09:11:16;;;;;;;10.68;2.50;;;20.20;52.20;;;;;;5041583;28;20017;-53
2022/05/29 09:13:56;;;;;;;9.88;2.30;;;20.20;52.20;;;;;;5043502;28;20044;-53
2022/05/29 09:16:24;;;;;;;7.85;2.25;;;20.20;52.20;;;;;;5031338;28;20037;-54
2022/05/29 09:19:13;;;;;;;8.82;2.30;;;20.20;52.10;;;;;;5037571;28;20509;-52
2022/05/29 09:22:10;;;;;;;8.18;2.15;;;20.30;53.20;;;;;;5055910;28;20061;-53
2022/05/29 09:24:59;;;;;;;7.90;2.35;;;20.30;51.90;;;;;;5044809;28;20030;-53
2022/05/29 09:27:25;;;;;;;9.50;2.00;;;20.30;51.90;;;;;;5044303;28;20036;-53
2022/05/29 09:29:51;;;;;;;8.50;2.22;;;20.30;51.90;;;;;;5042579;28;20033;-54
2022/05/29 09:32:25;;;;;;;8.63;2.10;;;20.40;52.60;;;;;;5039680;28;20175;-53
2022/05/29 09:35:09;;;;;;;9.88;2.35;;;20.30;51.80;;;;;;5037483;28;20033;-52
2022/05/29 09:38:00;;;;;;;7.10;2.22;;;20.40;51.90;;;;;;5036062;28;20040;-53
2022/05/29 09:40:37;;;;;;;8.77;1.92;;;20.40;51.70;;;;;;5038590;28;20029;-53
2022/05/29 09:43:22;;;;;;;7.43;2.13;;;20.40;51.70;;;;;;5039267;28;20031;-52
2022/05/29 09:45:47;;;;;;;10.30;2.30;;;20.40;51.80;;;;;;5037331;28;20028;-52
2022/05/29 09:51:21;;;;;;;9.43;2.33;;;20.50;51.70;;;;;;5080388;28;20044;-53
2022/05/29 09:53:57;;;;;;;5.78;2.03;;;20.50;51.70;;;;;;5077239;28;20478;-55
2022/05/29 09:56:32;;;;;;;6.88;2.10;;;20.50;51.70;;;;;;5073410;28;20029;-54
2022/05/29 09:59:05;;;;;;;7.60;2.10;;;20.50;51.60;;;;;;5079358;28;20111;-53
2022/05/29 10:01:37;;;;;;;8.80;2.10;;;20.50;51.50;;;;;;5077935;28;20032;-54
2022/05/29 10:04:08;;;;;;;6.68;2.22;;;20.50;51.70;;;;;;5079945;28;20497;-54
2022/05/29 10:06:46;;;;;;;10.13;2.28;;;20.50;51.50;;;;;;5081914;28;20040;-55
2022/05/29 10:09:22;;;;;;;8.20;2.20;;;20.50;51.40;;;;;;5060929;28;20439;-54
2022/05/29 10:11:53;;;;;;;6.10;1.95;;;20.50;51.20;;;;;;5071835;28;20012;-53
2022/05/29 10:14:30;;;;;;;5.95;1.90;;;20.50;51.10;;;;;;5087127;28;20111;-54
2022/05/29 10:16:55;;;;;;;7.72;2.33;;;20.50;51.30;;;;;;5072781;28;20397;-54
2022/05/29 10:19:38;;;;;;;7.57;2.50;;;20.60;51.10;;;;;;5071405;28;24389;-55
2022/05/29 10:22:27;;;;;;;8.88;2.38;;;20.50;51.10;;;;;;5075121;28;20032;-54
2022/05/29 10:24:54;;;;;;;7.28;2.25;;;20.50;51.10;;;;;;5078151;28;20409;-54
2022/05/29 10:27:28;;;;;;;9.65;2.17;;;20.50;50.70;;;;;;5079814;28;20068;-54
2022/05/29 10:29:59;;;;;;;9.13;2.67;;;20.50;50.40;;;;;;5078588;28;20044;-53
2022/05/29 10:32:29;;;;;;;9.57;2.15;;;20.60;51.10;;;;;;5078121;28;20109;-54
2022/05/29 10:35:32;;;;;;;7.22;2.13;;;20.60;51.00;;;;;;5071969;28;20158;-54
2022/05/29 10:37:57;;;;;;;7.28;2.33;;;20.50;50.50;;;;;;5076067;28;20044;-53
2022/05/29 10:40:31;;;;;;;11.15;2.75;;;20.60;50.70;;;;;;5074595;28;20101;-53
2022/05/29 10:43:03;;;;;;;9.13;2.63;;;20.60;50.90;;;;;;5071312;28;20079;-54
2022/05/29 10:45:47;;;;;;;9.43;2.40;;;20.60;51.40;;;;;;5069837;28;20279;-54
2022/05/29 10:48:28;;;;;;;6.85;2.40;;;20.60;51.40;;;;;;5075707;28;20047;-54
2022/05/29 10:51:24;;;;;;;8.13;2.40;;;20.60;51.20;;;;;;5069256;28;20040;-55
2022/05/29 10:54:09;;;;;;;8.77;2.30;;;20.60;50.50;;;;;;5077085;28;20508;-53
2022/05/29 10:56:51;;;;;;;10.65;2.33;;;20.60;51.30;;;;;;5073330;28;20653;-54
2022/05/29 10:59:51;;;;;;;7.88;2.10;;;20.60;49.20;;;;;;5065289;28;20029;-55
2022/05/29 11:05:51;;;;;;;10.48;3.08;;;20.70;50.90;;;;;;5061501;28;20158;-54
2022/05/29 11:08:54;;;;;;;8.50;2.47;;;20.70;51.70;;;;;;5073854;28;20051;-53
2022/05/29 11:11:44;;;;;;;12.60;3.03;;;20.70;51.80;;;;;;5063984;28;20024;-54
2022/05/29 11:14:39;;;;;;;15.00;3.00;;;20.70;52.70;;;;;;5059319;28;20102;-54
2022/05/29 11:17:17;;;;;;;;;;;20.70;51.80;;;;;;5054797;28;20021;-54
2022/05/29 11:19:50;;;;;;;10.77;2.60;;;20.70;51.10;;;;;;5060062;28;19940;-54
2022/05/29 11:22:48;;;;;;;10.57;2.28;;;20.70;50.90;;;;;;5060255;28;20025;-53
2022/05/29 11:25:39;;;;;;;6.22;1.95;;;20.70;50.20;;;;;;5063416;28;20032;-54
2022/05/29 11:28:42;;;;;;;12.43;2.67;;;20.60;48.90;;;;;;5061284;28;20528;-54
2022/05/29 11:31:13;;;;;;;14.05;3.22;;;20.60;48.30;;;;;;5063487;28;20025;-53
2022/05/29 11:33:45;;;;;;;14.07;4.05;;;20.60;49.80;;;;;;5066833;28;20103;-53
2022/05/29 11:36:16;;;;;;;13.90;5.85;;;20.60;48.00;;;;;;5057497;28;20140;-53
2022/05/29 11:39:00;;;;;;;17.42;6.82;;;20.60;48.60;;;;;;5062127;28;20390;-53
2022/05/29 11:41:26;;;;;;;16.70;8.15;;;20.70;48.80;;;;;;5056269;28;20151;-52
2022/05/29 11:43:56;;;;;;;19.85;8.43;;;20.70;48.50;;;;;;5054370;28;20036;-54
2022/05/29 11:52:06;;;;;;;12.02;5.90;;;21.00;49.60;;;;;;5059421;28;20032;-54
2022/05/29 11:54:45;;;;;;;21.30;6.03;;;21.00;48.20;;;;;;5062558;28;20047;-53
2022/05/29 11:57:19;;;;;;;14.20;5.05;;;21.00;48.80;;;;;;5058302;28;20874;-54
2022/05/29 11:59:55;;;;;;;11.00;3.95;;;21.00;48.00;;;;;;5065573;28;20037;-54
2022/05/29 12:02:40;;;;;;;11.30;3.80;;;20.90;47.80;;;;;;5064354;28;20489;-53
2022/05/29 12:05:36;;;;;;;10.90;3.92;;;20.90;48.10;;;;;;5059285;28;20028;-54
2022/05/29 12:08:09;;;;;;;11.10;4.03;;;20.90;48.70;;;;;;5062315;28;20075;-53
2022/05/29 12:10:43;;;;;;;8.88;3.80;;;20.90;48.80;;;;;;5060652;28;20032;-55
2022/05/29 12:13:13;;;;;;;11.60;3.00;;;20.90;47.60;;;;;;5060904;28;20087;-53
2022/05/29 12:15:39;;;;;;;8.32;3.10;;;20.90;47.70;;;;;;5062356;28;20366;-53
2022/05/29 12:18:09;;;;;;;12.38;3.40;;;20.90;47.50;;;;;;5058489;28;20112;-53
2022/05/29 12:20:37;;;;;;;6.80;2.63;;;20.90;47.40;;;;;;5052005;28;20031;-53
2022/05/29 12:23:07;;;;;;;9.02;2.40;;;21.00;47.20;;;;;;5071557;28;20025;-55
2022/05/29 12:25:39;;;;;;;13.20;2.83;;;21.00;47.80;;;;;;5046159;28;20036;-53
2022/05/29 12:28:08;;;;;;;14.85;2.70;;;21.00;47.20;;;;;;5060427;28;20075;-53
2022/05/29 12:30:45;;;;;;;14.30;2.70;;;21.00;47.50;;;;;;5061092;28;20028;-54
2022/05/29 12:33:18;;;;;;;19.02;3.70;;;21.00;47.50;;;;;;5061193;28;20429;-53
2022/05/29 12:36:05;;;;;;;11.63;2.63;;;21.10;47.80;;;;;;5058056;28;20039;-55
2022/05/29 12:38:46;;;;;;;16.42;2.90;;;21.10;47.70;;;;;;5057887;28;20029;-57
2022/05/29 12:41:18;;;;;;;9.70;2.13;;;21.00;45.40;;;;;;5059032;28;20036;-57
2022/05/29 12:43:53;;;;;;;11.02;2.25;;;20.90;44.90;;;;;;5055846;28;20154;-57
2022/05/29 12:46:28;;;;;;;12.45;2.33;;;20.90;45.50;;;;;;5051601;28;20040;-57
2022/05/29 12:48:57;;;;;;;;;;;20.70;44.80;;;;;;5058730;28;20098;-57
2022/05/29 12:51:29;;;;;;;8.27;2.20;;;20.60;44.40;;;;;;5054244;28;20078;-57
2022/05/29 12:54:13;;;;;;;6.43;2.05;;;20.50;45.40;;;;;;5060965;28;20029;-57
2022/05/29 12:56:41;;;;;;;9.80;2.28;;;20.60;45.40;;;;;;5058154;28;20032;-57
2022/05/29 12:59:33;;;;;;;10.20;2.55;;;20.70;45.20;;;;;;5060255;28;20477;-57
2022/05/29 13:01:59;;;;;;;9.77;2.33;;;20.90;45.50;;;;;;5054386;28;20029;-57
2022/05/29 13:04:42;;;;;;;13.82;2.50;;;20.90;45.00;;;;;;5052523;28;20101;-57
2022/05/29 13:07:13;;;;;;;8.27;2.10;;;20.90;44.80;;;;;;5056657;28;20039;-57
2022/05/29 13:09:56;;;;;;;6.78;2.30;;;20.90;44.70;;;;;;5061392;28;20020;-57
2022/05/29 13:12:37;;;;;;;7.90;2.05;;;21.00;44.80;;;;;;5058662;28;20029;-57
2022/05/29 13:15:08;;;;;;;8.70;1.90;;;20.90;44.80;;;;;;5058233;28;20020;-57
2022/05/29 13:17:34;;;;;;;11.05;2.15;;;20.90;44.60;;;;;;5064175;28;20535;-57
2022/05/29 13:20:04;;;;;;;32.40;2.97;;;20.60;44.50;;;;;;5058205;28;20021;-57
2022/05/29 13:23:03;;;;;;;16.88;2.50;;;20.50;44.90;;;;;;5058337;28;20043;-57
2022/05/29 13:25:37;;;;;;;11.77;2.20;;;20.40;44.70;;;;;;5050389;28;20033;-57
2022/05/29 13:28:46;;;;;;;11.30;2.30;;;20.40;43.70;;;;;;5053263;28;20173;-57
2022/05/29 13:31:16;;;;;;;7.18;2.13;;;20.30;44.60;;;;;;5058392;28;20504;-57
2022/05/29 13:34:27;;;;;;;11.82;2.00;;;20.50;45.00;;;;;;5059136;28;20520;-57
2022/05/29 13:36:53;;;;;;;12.38;2.30;;;20.70;45.00;;;;;;5018714;28;20044;-57
2022/05/29 13:39:24;;;;;;;8.07;2.20;;;20.70;44.10;;;;;;5018035;28;20480;-57
2022/05/29 13:41:50;;;;;;;7.78;2.00;;;20.60;44.40;;;;;;5016918;28;20033;-57
2022/05/29 13:44:40;;;;;;;9.00;1.98;;;20.60;45.00;;;;;;5018199;28;20049;-57
2022/05/29 13:47:24;;;;;;;8.70;2.20;;;20.60;44.40;;;;;;5016652;28;20057;-56